Terminal Aerodrome Forecast
Issued by NWS Duluth, MN

Current Version | Previous Version | Text Only | Print | Product List | Glossary On
Versions: 1 2 3 4 5 6 7 8 9 10 11 12 13 14 15 16 17 18 19 20 21 22 23 24
527
FTUS43 KDLH 271740
TAFINL
TAF
KINL 271740Z 2718/2818 18005KT P6SM SCT040 BKN150
     FM280100 VRB03KT P6SM SCT022 BKN040
     FM280900 VRB03KT 4SM -SN BR SCT012 OVC020
     FM281100 04006KT 1SM -SN BR BKN003 OVC009
     FM281500 01010G15KT 5SM -SN SCT007 OVC019=

USA.gov is the U.S. government's official web portal to all federal, state and local government web resources and services.